Time;durP1;ratioP1;P1;durP2;ratioP2;P2;SDS_P1;SDS_P2;PMS_P1;PMS_P2;Temp;Humidity;BMP_temperature;BMP_pressure;BME280_temperature;BME280_humidity;BME280_pressure;Samples;Min_cycle;Max_cycle;Signal;HPM_P1;HPM_P2
2022/06/30 00:00:48;;;;;;;27.40;4.13;;;;;;;17.48;nan;101278.72;6136799;23;20482;-96
2022/06/30 00:03:16;;;;;;;17.60;4.23;;;;;;;17.50;nan;101284.03;6136981;23;20483;-96
2022/06/30 00:05:45;;;;;;;20.57;3.77;;;;;;;17.47;nan;101271.50;6113118;23;20422;-96
2022/06/30 00:08:25;;;;;;;17.60;3.10;;;;;;;17.42;nan;101285.13;6137118;23;20412;-96
2022/06/30 00:14:34;;;;;;;24.77;4.47;;;;;;;17.39;nan;101268.16;6187140;23;20402;-96
2022/06/30 00:17:02;;;;;;;12.80;4.00;;;;;;;17.40;nan;101262.41;6131199;23;20441;-96
2022/06/30 00:20:20;;;;;;;16.83;2.40;;;;;;;17.44;nan;101271.09;6155802;23;20417;-96
2022/06/30 00:22:59;;;;;;;17.27;3.77;;;;;;;17.45;nan;101283.84;6179887;23;20472;-96
2022/06/30 00:30:03;;;;;;;31.63;5.50;;;;;;;17.43;nan;101285.97;6157450;23;20936;-96
2022/06/30 00:32:45;;;;;;;17.30;3.50;;;;;;;17.20;nan;101251.53;6181516;23;20424;-96
2022/06/30 00:35:45;;;;;;;18.70;2.63;;;;;;;17.38;nan;101286.66;6157326;23;20416;-96
2022/06/30 00:38:14;;;;;;;14.00;2.80;;;;;;;17.30;nan;101258.47;6158386;23;20504;-96
2022/06/30 00:41:16;;;;;;;17.40;3.10;;;;;;;17.44;nan;101276.63;6109732;23;20416;-96
2022/06/30 00:47:32;;;;;;;20.83;2.60;;;;;;;17.25;nan;101259.16;6159002;23;20381;-96
2022/06/30 00:53:47;;;;;;;25.53;3.47;;;;;;;17.36;nan;101268.59;6159036;23;20863;-96
2022/06/30 00:56:15;;;;;;;24.20;3.27;;;;;;;17.35;nan;101275.19;6109291;23;20757;-96
2022/06/30 00:59:16;;;;;;;19.10;4.37;;;;;;;17.34;nan;101256.94;6157932;23;21074;-96
2022/06/30 01:01:48;;;;;;;18.20;3.70;;;;;;;17.26;nan;101272.72;6157919;23;20436;-96
2022/06/30 01:04:23;;;;;;;24.40;3.67;;;;;;;17.15;nan;101256.88;6157688;23;20412;-96
2022/06/30 01:07:03;;;;;;;32.50;3.90;;;;;;;17.29;nan;101268.69;6157826;23;20392;-96
2022/06/30 01:16:46;;;;;;;20.73;3.40;;;;;;;16.95;nan;101244.28;6159498;23;20455;-96
2022/06/30 01:19:19;;;;;;;19.80;3.57;;;;;;;17.14;nan;101263.47;6137313;23;20448;-95
2022/06/30 01:22:21;;;;;;;22.97;3.80;;;;;;;17.14;nan;101257.94;6138517;23;20436;-94
2022/06/30 01:31:43;;;;;;;19.77;3.17;;;;;;;17.06;nan;101260.16;6188434;23;20426;-94
2022/06/30 01:34:25;;;;;;;21.30;2.90;;;;;;;16.90;nan;101236.69;6137579;23;20423;-94
2022/06/30 01:47:38;;;;;;;12.93;2.73;;;;;;;16.99;nan;101232.56;6188394;23;20707;-92
2022/06/30 01:50:08;;;;;;;27.97;3.10;;;;;;;16.93;nan;101227.97;6162553;23;20392;-92
2022/06/30 01:56:18;;;;;;;22.47;3.10;;;;;;;17.07;nan;101236.97;6182205;23;20505;-92
2022/06/30 01:58:59;;;;;;;18.20;3.97;;;;;;;16.99;nan;101238.09;6108766;23;20448;-93
2022/06/30 02:01:26;;;;;;;25.57;3.30;;;;;;;16.93;nan;101216.91;6107003;23;20456;-92
2022/06/30 02:03:54;;;;;;;19.07;3.47;;;;;;;16.98;nan;101232.78;6083041;23;20473;-93
2022/06/30 02:06:22;;;;;;;23.07;4.20;;;;;;;16.98;nan;101233.63;6083243;23;20473;-91
2022/06/30 02:08:49;;;;;;;17.40;3.90;;;;;;;16.89;nan;101224.81;6083527;23;20473;-91
2022/06/30 02:11:17;;;;;;;28.00;3.97;;;;;;;16.91;nan;101221.81;6083192;23;20492;-92
2022/06/30 02:13:45;;;;;;;16.27;2.37;;;;;;;16.92;nan;101223.50;6072129;23;20418;-93
2022/06/30 02:16:13;;;;;;;21.37;3.80;;;;;;;16.83;nan;101217.41;6068805;23;20410;-93
2022/06/30 02:18:41;;;;;;;28.07;3.93;;;;;;;16.93;nan;101223.25;6091766;23;20765;-93
2022/06/30 02:21:10;;;;;;;19.40;3.63;;;;;;;17.03;nan;101225.53;6068839;23;20412;-92
2022/06/30 02:23:45;;;;;;;23.80;4.10;;;;;;;17.06;nan;101229.75;6059440;23;20414;-95
2022/06/30 02:26:18;;;;;;;19.70;4.43;;;;;;;16.99;nan;101238.09;6082986;23;20427;-95
2022/06/30 02:28:48;;;;;;;17.00;3.80;;;;;;;16.75;nan;101217.66;6102291;23;20422;-96
2022/06/30 02:31:42;;;;;;;26.80;3.43;;;;;;;16.79;nan;101231.88;6103197;23;20422;-95
2022/06/30 02:34:42;;;;;;;17.57;3.40;;;;;;;16.81;nan;101232.50;6102524;23;20417;-96
2022/06/30 02:37:17;;;;;;;25.43;3.67;;;;;;;16.71;nan;101212.81;6102843;23;20418;-95
2022/06/30 02:39:45;;;;;;;21.17;3.67;;;;;;;16.74;nan;101218.72;6079560;23;20456;-95
2022/06/30 02:42:51;;;;;;;17.60;4.23;;;;;;;16.77;nan;101229.31;6102691;23;20425;-95
2022/06/30 02:45:18;;;;;;;19.70;3.67;;;;;;;16.67;nan;101217.09;6103164;23;20413;-94
2022/06/30 02:51:27;;;;;;;20.00;3.70;;;;;;;16.75;nan;101225.94;6128253;23;20385;-94
2022/06/30 02:54:40;;;;;;;21.20;3.33;;;;;;;16.80;nan;101230.78;6054559;23;20508;-95
2022/06/30 02:57:35;;;;;;;29.13;3.50;;;;;;;16.85;nan;101215.25;6126198;23;20437;-94
2022/06/30 03:00:19;;;;;;;26.83;4.23;;;;;;;16.80;nan;101214.22;6132056;23;20471;-95
2022/06/30 03:03:05;;;;;;;18.67;3.00;;;;;;;16.83;nan;101219.31;6131476;23;20417;-95
2022/06/30 03:09:14;;;;;;;20.43;3.93;;;;;;;16.55;nan;101198.44;6158270;23;20377;-95
2022/06/30 03:12:18;;;;;;;18.10;3.70;;;;;;;16.69;nan;101213.03;6107725;23;20412;-95
2022/06/30 03:14:47;;;;;;;23.17;4.07;;;;;;;16.61;nan;101210.50;6131858;23;20407;-95
2022/06/30 03:21:29;;;;;;;22.03;5.00;;;;;;;16.67;nan;101215.19;6068046;23;20387;-95
2022/06/30 03:23:58;;;;;;;21.43;3.73;;;;;;;16.54;nan;101204.22;6068046;23;20424;-96
2022/06/30 03:30:12;;;;;;;23.77;4.20;;;;;;;16.67;nan;101217.94;6068116;23;20691;-95
2022/06/30 03:33:14;;;;;;;37.57;3.80;;;;;;;16.57;nan;101225.81;6020277;23;20428;-95
2022/06/30 03:36:35;;;;;;;17.17;5.07;;;;;;;16.60;nan;101222.63;6043689;23;20426;-95
2022/06/30 03:39:51;;;;;;;23.57;4.00;;;;;;;16.56;nan;101227.72;6068385;23;20447;-95
2022/06/30 03:42:47;;;;;;;17.47;3.40;;;;;;;16.61;nan;101231.75;6067217;23;20434;-95
2022/06/30 03:45:51;;;;;;;26.97;4.43;;;;;;;16.57;nan;101229.41;6066097;23;20419;-95
2022/06/30 03:48:57;;;;;;;25.03;4.90;;;;;;;16.64;nan;101221.16;6043044;23;20458;-95
2022/06/30 03:51:52;;;;;;;22.10;3.90;;;;;;;16.57;nan;101226.66;6068317;23;20411;-95
2022/06/30 03:58:52;;;;;;;28.00;4.60;;;;;;;16.58;nan;101233.88;6077795;23;20401;-96
2022/06/30 04:05:08;;;;;;;22.93;3.73;;;;;;;16.48;nan;101244.56;6127395;23;20418;-96
2022/06/30 04:11:25;;;;;;;20.50;4.00;;;;;;;16.29;nan;101215.16;6041010;23;20379;-95
2022/06/30 04:17:33;;;;;;;17.00;3.20;;;;;;;16.33;nan;101241.25;6040725;23;20419;-96
2022/06/30 04:20:48;;;;;;;19.73;3.83;;;;;;;16.39;nan;101245.88;5994096;23;20928;-95
2022/06/30 04:27:03;;;;;;;20.67;3.77;;;;;;;16.30;nan;101229.78;6129498;23;20389;-94
2022/06/30 04:33:18;;;;;;;24.60;5.47;;;;;;;16.37;nan;101234.19;6129369;23;20406;-94
2022/06/30 04:39:25;;;;;;;24.73;4.60;;;;;;;16.40;nan;101246.72;6129687;23;20939;-95
2022/06/30 04:42:30;;;;;;;27.63;4.73;;;;;;;16.35;nan;101241.88;6080765;23;20468;-96
2022/06/30 04:45:19;;;;;;;27.20;5.37;;;;;;;16.48;nan;101244.56;5961019;24;20531;-96
2022/06/30 04:48:35;;;;;;;28.20;3.87;;;;;;;16.42;nan;101237.16;5961092;24;20430;-96
2022/06/30 04:51:35;;;;;;;15.93;3.70;;;;;;;16.36;nan;101237.19;5960743;24;20432;-96
2022/06/30 04:54:22;;;;;;;29.20;4.93;;;;;;;16.36;nan;101232.50;5960824;24;20478;-95
2022/06/30 04:56:50;;;;;;;20.60;3.83;;;;;;;16.19;nan;101212.84;5960897;23;20558;-96
2022/06/30 04:59:32;;;;;;;20.13;4.50;;;;;;;16.33;nan;101219.19;5937987;24;20460;-96
2022/06/30 05:02:10;;;;;;;30.23;5.20;;;;;;;16.31;nan;101235.09;5938351;24;20433;-96
2022/06/30 05:04:45;;;;;;;24.90;4.23;;;;;;;16.26;nan;101223.88;5961003;24;20454;-96
2022/06/30 05:07:29;;;;;;;19.83;4.03;;;;;;;16.16;nan;101227.09;5937710;24;20436;-95
2022/06/30 05:17:34;;;;;;;20.13;3.93;;;;;;;16.21;nan;101242.97;5983802;24;20385;-95
2022/06/30 05:20:23;;;;;;;24.83;3.77;;;;;;;16.23;nan;101241.69;6066079;23;20460;-95
2022/06/30 05:27:05;;;;;;;20.47;4.37;;;;;;;16.25;nan;101241.47;6129092;23;20370;-96
2022/06/30 05:33:21;;;;;;;23.63;3.90;;;;;;;16.10;nan;101213.34;6118736;23;20763;-95
2022/06/30 05:35:49;;;;;;;24.13;3.60;;;;;;;16.10;nan;101224.38;6055947;23;20418;-95
2022/06/30 05:38:23;;;;;;;24.67;4.50;;;;;;;16.27;nan;101244.88;6080048;23;20414;-95
2022/06/30 05:41:21;;;;;;;23.20;4.00;;;;;;;16.33;nan;101238.50;6080923;23;20421;-96
2022/06/30 05:44:12;;;;;;;24.07;4.23;;;;;;;16.34;nan;101237.44;6103019;23;20425;-96
2022/06/30 05:50:42;;;;;;;18.33;4.00;;;;;;;16.25;nan;101227.69;6128631;23;20457;-96
2022/06/30 05:56:57;;;;;;;19.40;3.93;;;;;;;16.22;nan;101214.34;6128668;23;20390;-96
2022/06/30 05:59:53;;;;;;;21.30;3.53;;;;;;;16.33;nan;101246.75;6055234;23;20526;-95
2022/06/30 06:02:45;;;;;;;25.40;5.40;;;;;;;16.37;nan;101239.72;6103443;23;20453;-96
2022/06/30 06:05:27;;;;;;;18.50;3.40;;;;;;;16.49;nan;101237.13;6104273;23;20418;-96
2022/06/30 06:08:49;;;;;;;16.47;4.00;;;;;;;16.47;nan;101233.75;6103553;23;20401;-95
2022/06/30 06:15:05;;;;;;;17.70;4.07;;;;;;;16.44;nan;101232.25;6129674;23;20405;-94
2022/06/30 06:25:30;;;;;;;23.30;4.13;;;;;;;16.61;nan;101240.03;6133781;23;20405;-94
2022/06/30 06:31:12;;;;;;;20.17;3.70;;;;;;;16.66;nan;101237.47;6108151;23;20417;-96
2022/06/30 06:33:52;;;;;;;27.90;3.77;;;;;;;16.77;nan;101242.28;6111337;23;20440;-96
2022/06/30 06:36:38;;;;;;;17.93;2.50;;;;;;;16.69;nan;101237.88;6135704;23;20720;-92
2022/06/30 06:42:57;;;;;;;23.77;3.07;;;;;;;16.74;nan;101242.75;6160134;23;20428;-96
2022/06/30 06:45:35;;;;;;;11.60;3.47;;;;;;;16.86;nan;101241.81;6086114;23;20451;-96
2022/06/30 06:52:02;;;;;;;20.17;2.93;;;;;;;16.95;nan;101247.03;6158975;23;20425;-96
2022/06/30 06:58:36;;;;;;;16.57;3.33;;;;;;;17.08;nan;101258.84;6158283;23;20376;-95
2022/06/30 07:01:05;;;;;;;15.40;3.30;;;;;;;17.11;nan;101255.66;6133678;23;20420;-94
2022/06/30 07:07:46;;;;;;;19.20;3.27;;;;;;;17.26;nan;101263.59;6157320;23;20404;-95
2022/06/30 07:18:21;;;;;;;15.63;3.70;;;;;;;17.50;nan;101264.69;6158826;23;20445;-91
2022/06/30 07:21:31;;;;;;;19.87;3.00;;;;;;;17.68;nan;101253.69;6132657;23;20412;-92
2022/06/30 07:24:00;;;;;;;15.37;2.57;;;;;;;17.67;nan;101254.75;6131928;23;20906;-87
2022/06/30 07:26:45;;;;;;;17.43;3.13;;;;;;;17.76;nan;101269.09;6132706;23;20413;-93
2022/06/30 07:29:15;;;;;;;14.20;2.50;;;;;;;17.64;nan;101249.69;6155208;23;20951;-87
2022/06/30 07:31:45;;;;;;;11.60;2.50;;;;;;;17.80;nan;101273.97;6106947;23;20404;-95
2022/06/30 07:34:39;;;;;;;15.37;2.87;;;;;;;17.92;nan;101280.41;6108499;23;20417;-94
2022/06/30 20:13:47;;;;;;;20.60;4.20;;;;;;;18.85;nan;101251.59;6152885;23;20417;-93
2022/06/30 20:16:21;;;;;;;24.20;3.63;;;;;;;18.84;nan;101267.38;6159564;23;20444;-92
2022/06/30 20:19:01;;;;;;;28.03;4.47;;;;;;;18.78;nan;101265.53;6156175;23;20409;-92
2022/06/30 20:21:36;;;;;;;25.57;3.70;;;;;;;18.66;nan;101258.28;6108818;23;20938;-92
2022/06/30 20:24:07;;;;;;;21.63;3.63;;;;;;;18.66;nan;101258.28;6135754;23;20464;-92
2022/06/30 20:26:48;;;;;;;29.67;4.30;;;;;;;18.72;nan;101268.38;6109975;23;20424;-91
2022/06/30 20:29:24;;;;;;;27.07;4.17;;;;;;;18.70;nan;101265.00;6155432;23;20483;-93
2022/06/30 20:31:56;;;;;;;19.30;3.57;;;;;;;18.55;nan;101241.31;6086532;23;20408;-93
2022/06/30 20:34:32;;;;;;;22.93;3.93;;;;;;;18.64;nan;101266.81;5993710;23;20964;-93
2022/06/30 20:37:03;;;;;;;22.10;4.70;;;;;;;18.51;nan;101261.41;5994047;23;20514;-94
2022/06/30 20:39:31;;;;;;;28.53;4.03;;;;;;;18.47;nan;101265.75;5994010;23;20444;-94
2022/06/30 20:42:00;;;;;;;19.57;4.07;;;;;;;18.50;nan;101270.78;5992750;23;20916;-92
2022/06/30 20:44:41;;;;;;;17.17;2.97;;;;;;;18.45;nan;101267.91;5972426;23;20420;-94
2022/06/30 20:51:31;;;;;;;33.80;3.67;;;;;;;18.41;nan;101284.13;6002229;23;20484;-91
2022/06/30 20:53:17;;;;;;;29.63;5.50;;;;;;;18.31;nan;101289.34;6116972;23;20479;-90
2022/06/30 20:55:46;;;;;;;29.90;4.70;;;;;;;18.37;nan;101268.19;6089010;23;20393;-91
2022/06/30 20:58:16;;;;;;;17.83;3.50;;;;;;;18.37;nan;101269.03;6115107;23;20445;-89
2022/06/30 21:00:53;;;;;;;23.30;4.00;;;;;;;18.27;nan;101285.38;6161793;23;20471;-91
2022/06/30 21:03:26;;;;;;;34.57;4.43;;;;;;;18.30;nan;101287.66;6112704;23;20425;-90
2022/06/30 21:05:58;;;;;;;35.90;5.57;;;;;;;18.30;nan;101287.66;6134652;23;20484;-91
2022/06/30 21:08:29;;;;;;;22.70;3.80;;;;;;;18.25;nan;101291.13;6136606;23;20470;-90
2022/06/30 21:11:13;;;;;;;26.33;4.57;;;;;;;18.20;nan;101287.34;6110780;23;20419;-92
2022/06/30 21:13:53;;;;;;;16.77;3.50;;;;;;;18.21;nan;101294.59;6111142;23;20532;-93
2022/06/30 21:16:23;;;;;;;26.30;4.13;;;;;;;18.08;nan;101289.22;6114768;23;20416;-94
2022/06/30 21:18:58;;;;;;;26.40;3.90;;;;;;;18.13;nan;101312.31;6110901;23;20419;-93
2022/06/30 21:21:40;;;;;;;24.97;3.73;;;;;;;18.17;nan;101309.94;6111380;23;20586;-92
2022/06/30 21:24:10;;;;;;;19.87;3.67;;;;;;;18.03;nan;101323.09;6109000;23;20417;-93
2022/06/30 21:27:11;;;;;;;23.43;3.80;;;;;;;18.05;nan;101328.41;6111367;23;20397;-93
2022/06/30 21:33:45;;;;;;;24.40;4.10;;;;;;;18.03;nan;101297.34;6133576;23;20377;-91
2022/06/30 21:36:14;;;;;;;31.13;5.13;;;;;;;18.14;nan;101311.25;6082852;23;20950;-91
2022/06/30 21:43:59;;;;;;;23.37;4.73;;;;;;;18.07;nan;101317.94;6121255;23;20444;-90
2022/06/30 21:53:22;;;;;;;30.83;4.97;;;;;;;17.94;nan;101316.16;6111171;23;20554;-93
2022/06/30 21:59:29;;;;;;;23.33;3.47;;;;;;;17.88;nan;101295.81;6171069;23;20794;-91
2022/06/30 22:02:12;;;;;;;26.00;4.13;;;;;;;17.76;nan;101281.00;6141400;23;20432;-91
2022/06/30 22:04:47;;;;;;;30.37;4.50;;;;;;;17.86;nan;101308.16;6160458;23;20545;-90
2022/06/30 22:07:20;;;;;;;23.13;4.47;;;;;;;17.88;nan;101340.06;6133008;23;20423;-90
2022/06/30 22:09:48;;;;;;;16.93;3.50;;;;;;;17.89;nan;101289.19;6133354;23;20424;-88
2022/06/30 22:12:17;;;;;;;26.77;4.60;;;;;;;17.86;nan;101309.00;6107996;23;20473;-88
2022/06/30 22:14:45;;;;;;;25.23;3.20;;;;;;;17.92;nan;101302.53;6103588;23;20866;-89
2022/06/30 22:17:14;;;;;;;26.43;4.03;;;;;;;17.92;nan;101302.53;6083297;23;20401;-89
2022/06/30 22:19:44;;;;;;;25.67;4.30;;;;;;;17.90;nan;101301.91;6111775;23;20405;-88
2022/06/30 22:22:12;;;;;;;28.20;3.90;;;;;;;17.93;nan;101304.25;6110968;23;20958;-89
2022/06/30 22:24:41;;;;;;;31.53;4.10;;;;;;;17.95;nan;101296.56;6132651;23;20488;-88
2022/06/30 22:27:09;;;;;;;16.50;3.23;;;;;;;17.73;nan;101305.50;6133061;23;20417;-89
2022/06/30 22:29:37;;;;;;;30.47;4.07;;;;;;;17.85;nan;101299.03;6132707;23;20860;-88
2022/06/30 22:32:06;;;;;;;19.57;3.10;;;;;;;17.88;nan;101276.44;6131993;23;20912;-88
2022/06/30 22:34:43;;;;;;;26.77;4.00;;;;;;;17.92;nan;101285.94;6132047;23;20408;-88
2022/06/30 22:37:13;;;;;;;16.57;3.33;;;;;;;17.91;nan;101288.94;6132085;23;20475;-89
2022/06/30 22:39:43;;;;;;;29.70;4.73;;;;;;;17.82;nan;101290.31;6131597;23;20397;-88
2022/06/30 22:42:11;;;;;;;21.80;3.30;;;;;;;17.87;nan;101283.03;6107558;23;20407;-88
2022/06/30 22:44:38;;;;;;;19.43;4.13;;;;;;;17.84;nan;101289.03;6108077;23;20417;-89
2022/06/30 22:47:06;;;;;;;20.03;3.83;;;;;;;17.81;nan;101300.53;6083142;23;20409;-88
2022/06/30 22:49:34;;;;;;;22.63;3.37;;;;;;;17.82;nan;101290.31;6083749;23;20420;-88
2022/06/30 22:52:02;;;;;;;17.33;3.10;;;;;;;17.73;nan;101283.38;6132118;23;20456;-89
2022/06/30 22:54:31;;;;;;;23.07;3.30;;;;;;;17.79;nan;101286.09;5986642;23;20526;-89
2022/06/30 22:57:01;;;;;;;26.30;4.40;;;;;;;17.87;nan;101284.97;5963461;23;20437;-89
2022/06/30 22:59:29;;;;;;;16.87;3.37;;;;;;;17.68;nan;101283.25;5965768;23;20409;-88
2022/06/30 23:02:00;;;;;;;12.10;2.73;;;;;;;17.67;nan;101276.88;5968501;23;20460;-89
2022/06/30 23:04:30;;;;;;;24.23;4.60;;;;;;;17.75;nan;101261.88;5965793;23;20869;-89
2022/06/30 23:07:02;;;;;;;18.33;4.00;;;;;;;17.73;nan;101284.22;5869704;24;20424;-91
2022/06/30 23:09:42;;;;;;;27.50;3.60;;;;;;;17.75;nan;101282.09;5898910;24;20428;-90
2022/06/30 23:12:12;;;;;;;33.20;4.67;;;;;;;17.72;nan;101282.53;5908843;23;20734;-91
2022/06/30 23:14:42;;;;;;;35.63;4.50;;;;;;;17.74;nan;101283.16;6013484;23;20418;-91
2022/06/30 23:17:17;;;;;;;17.77;4.10;;;;;;;17.63;nan;101270.06;5991957;23;20450;-92
2022/06/30 23:19:45;;;;;;;23.90;3.47;;;;;;;17.54;nan;101252.06;6029455;23;20460;-91
2022/06/30 23:22:14;;;;;;;17.80;3.20;;;;;;;17.55;nan;101267.56;6091256;23;20468;-91
2022/06/30 23:24:43;;;;;;;20.10;4.53;;;;;;;17.53;nan;101275.25;6120298;23;20393;-91
2022/06/30 23:27:25;;;;;;;41.47;5.40;;;;;;;17.47;nan;101262.34;6120893;23;20921;-92
2022/06/30 23:29:53;;;;;;;16.73;3.73;;;;;;;17.44;nan;101265.56;6114646;23;20423;-91
2022/06/30 23:33:05;;;;;;;13.37;2.70;;;;;;;17.55;nan;101273.09;6090976;23;20401;-91
2022/06/30 23:35:37;;;;;;;25.73;4.43;;;;;;;17.48;nan;101267.66;5992573;24;20394;-91
2022/06/30 23:38:18;;;;;;;19.90;3.83;;;;;;;17.57;nan;101282.03;5922988;24;20497;-91
2022/06/30 23:40:47;;;;;;;34.43;4.37;;;;;;;17.60;nan;101270.50;5940601;23;20450;-91
2022/06/30 23:43:18;;;;;;;29.10;3.83;;;;;;;17.50;nan;101260.00;5944080;24;20424;-92
2022/06/30 23:45:47;;;;;;;17.70;3.10;;;;;;;17.54;nan;101254.84;5916661;24;20808;-91
2022/06/30 23:48:25;;;;;;;25.47;4.17;;;;;;;17.54;nan;101246.53;5936706;24;20411;-92
2022/06/30 23:50:56;;;;;;;20.77;3.87;;;;;;;17.57;nan;101248.84;5936486;24;20906;-91
2022/06/30 23:53:30;;;;;;;26.43;3.97;;;;;;;17.52;nan;101244.00;5938279;24;20498;-89
2022/06/30 23:55:59;;;;;;;22.33;3.47;;;;;;;17.56;nan;101258.22;5922559;24;20451;-88
2022/06/30 23:58:29;;;;;;;23.30;3.60;;;;;;;17.48;nan;101255.75;5940902;24;20485;-89
